Time;durP1;ratioP1;P1;durP2;ratioP2;P2;SDS_P1;SDS_P2;PMS_P1;PMS_P2;Temp;Humidity;BMP_temperature;BMP_pressure;BME280_temperature;BME280_humidity;BME280_pressure;Samples;Min_cycle;Max_cycle;Signal;HPM_P1;HPM_P2
2021/04/07 00:01:43;;;;;;;15.57;3.10;;;;;;;-1.71;100.00;101401.97;5132944;27;20023;-64
2021/04/07 00:04:09;;;;;;;13.88;2.80;;;;;;;-1.79;100.00;101391.09;5133404;27;20077;-64
2021/04/07 00:06:35;;;;;;;13.43;3.15;;;;;;;-1.83;100.00;101390.03;5132584;27;20513;-64
2021/04/07 00:09:04;;;;;;;18.58;3.55;;;;;;;-1.83;100.00;101397.81;5132655;27;20059;-63
2021/04/07 00:11:29;;;;;;;17.83;3.20;;;;;;;-1.83;100.00;101394.31;5131377;27;20106;-65
2021/04/07 00:13:55;;;;;;;21.27;3.70;;;;;;;-1.86;100.00;101400.22;5133085;27;20092;-65
2021/04/07 00:16:21;;;;;;;18.30;3.47;;;;;;;-1.87;100.00;101405.28;5132516;27;20038;-64
2021/04/07 00:18:46;;;;;;;21.45;3.60;;;;;;;-1.86;100.00;101407.09;5132839;27;20469;-64
2021/04/07 00:21:12;;;;;;;16.75;3.60;;;;;;;-1.86;100.00;101402.78;5132953;27;20018;-65
2021/04/07 00:23:37;;;;;;;20.33;3.72;;;;;;;-1.78;100.00;101401.59;5132034;27;20023;-65
2021/04/07 00:26:03;;;;;;;21.80;3.60;;;;;;;-1.70;100.00;101408.94;5131921;27;20019;-65
2021/04/07 00:28:28;;;;;;;18.80;3.70;;;;;;;-1.65;100.00;101417.91;5132505;27;20154;-65
2021/04/07 00:30:53;;;;;;;18.05;3.97;;;;;;;-1.55;100.00;101422.00;5133118;27;20070;-65
2021/04/07 00:33:19;;;;;;;18.25;3.40;;;;;;;-1.52;100.00;101409.22;5129962;27;20106;-64
2021/04/07 00:35:44;;;;;;;20.10;4.22;;;;;;;-1.54;100.00;101409.13;5132429;27;20042;-63
2021/04/07 00:38:13;;;;;;;22.17;4.82;;;;;;;-1.58;100.00;101407.13;5131599;27;20030;-64
2021/04/07 00:40:39;;;;;;;20.30;4.47;;;;;;;-1.66;100.00;101404.06;5132409;27;20042;-64
2021/04/07 00:43:05;;;;;;;18.27;3.55;;;;;;;-1.69;100.00;101402.97;5132325;27;20035;-63
2021/04/07 00:45:31;;;;;;;22.55;5.40;;;;;;;-1.72;100.00;101413.13;5132442;27;20023;-64
2021/04/07 00:47:56;;;;;;;21.88;5.18;;;;;;;-1.70;100.00;101412.44;5132092;27;20107;-64
2021/04/07 00:50:25;;;;;;;21.67;5.18;;;;;;;-1.62;100.00;101412.91;5132591;27;20046;-63
2021/04/07 00:52:51;;;;;;;15.95;4.30;;;;;;;-1.58;100.00;101417.50;5131532;27;20042;-63
2021/04/07 00:55:18;;;;;;;23.70;5.95;;;;;;;-1.54;100.00;101427.28;5131814;27;20023;-63
2021/04/07 00:57:45;;;;;;;21.20;5.60;;;;;;;-1.45;100.00;101421.75;5132276;27;20102;-63
2021/04/07 01:00:12;;;;;;;22.85;5.70;;;;;;;-1.50;100.00;101437.03;5132470;27;20111;-63
2021/04/07 01:02:41;;;;;;;24.10;6.75;;;;;;;-1.51;100.00;101445.59;5131218;27;20027;-63
2021/04/07 01:05:16;;;;;;;22.13;6.35;;;;;;;-1.52;100.00;101446.41;5131689;27;20030;-63
2021/04/07 01:07:41;;;;;;;26.58;7.90;;;;;;;-1.53;100.00;101434.25;5130922;27;20023;-63
2021/04/07 01:10:08;;;;;;;26.23;7.75;;;;;;;-1.58;100.00;101431.34;5132212;28;20068;-63
2021/04/07 01:12:34;;;;;;;26.83;8.38;;;;;;;-1.47;100.00;101415.56;5132567;27;20019;-63
2021/04/07 01:15:00;;;;;;;18.42;6.00;;;;;;;-1.42;100.00;101415.03;5136436;27;20114;-63
2021/04/07 01:17:25;;;;;;;25.40;9.85;;;;;;;-1.51;100.00;101419.69;5136017;27;20473;-63
2021/04/07 01:19:51;;;;;;;16.88;4.82;;;;;;;-1.53;100.00;101408.31;5134561;27;20485;-64
2021/04/07 01:22:19;;;;;;;25.05;8.15;;;;;;;-1.65;100.00;101423.09;5135845;27;20385;-64
2021/04/07 01:24:45;;;;;;;26.10;7.97;;;;;;;-1.70;100.00;101422.81;5136183;27;20077;-63
2021/04/07 01:27:11;;;;;;;27.17;9.60;;;;;;;-1.71;100.00;101417.53;5135886;27;20502;-64
2021/04/07 01:29:36;;;;;;;27.45;7.70;;;;;;;-1.71;100.00;101417.53;5136182;27;20054;-63
2021/04/07 01:32:01;;;;;;;25.55;8.57;;;;;;;-1.74;100.00;101415.63;5136468;27;20038;-63
2021/04/07 01:34:29;;;;;;;25.33;8.55;;;;;;;-1.76;100.00;101417.25;5134999;27;20019;-64
2021/04/07 01:36:56;;;;;;;29.25;9.35;;;;;;;-1.81;100.00;101416.94;5134812;27;20041;-64
2021/04/07 01:39:22;;;;;;;25.80;8.63;;;;;;;-1.82;100.00;101404.78;5136336;27;20022;-63
2021/04/07 01:41:49;;;;;;;26.13;8.10;;;;;;;-1.88;100.00;101398.31;5136507;27;20156;-64
2021/04/07 01:44:17;;;;;;;27.60;8.30;;;;;;;-1.95;100.00;101410.00;5135861;27;20031;-64
2021/04/07 01:46:44;;;;;;;26.73;7.88;;;;;;;-2.01;100.00;101401.81;5135183;27;20019;-64
2021/04/07 01:49:11;;;;;;;27.17;8.20;;;;;;;-2.04;100.00;101406.78;5135842;27;20534;-64
2021/04/07 01:51:37;;;;;;;24.17;6.32;;;;;;;-2.05;100.00;101394.63;5135645;27;20488;-63
2021/04/07 01:54:07;;;;;;;27.05;7.00;;;;;;;-2.01;100.00;101402.72;5136266;27;20016;-64
2021/04/07 01:56:45;;;;;;;23.42;5.60;;;;;;;-2.00;100.00;101399.31;5135275;27;20020;-64
2021/04/07 01:59:10;;;;;;;22.85;5.50;;;;;;;-2.02;100.00;101400.94;5135446;27;20022;-64
2021/04/07 02:01:37;;;;;;;22.73;5.47;;;;;;;-2.03;100.00;101406.00;5134997;27;20027;-64
2021/04/07 02:04:03;;;;;;;24.25;5.07;;;;;;;-2.06;100.00;101390.28;5136013;27;20460;-64
2021/04/07 02:06:29;;;;;;;18.50;4.30;;;;;;;-2.02;100.00;101390.56;5134959;27;20023;-64
2021/04/07 02:08:54;;;;;;;22.65;5.28;;;;;;;-2.01;100.00;101402.72;5135583;27;20056;-63
2021/04/07 02:11:20;;;;;;;18.52;4.07;;;;;;;-2.01;100.00;101397.53;5135740;27;20034;-64
2021/04/07 02:13:45;;;;;;;21.25;4.57;;;;;;;-1.95;100.00;101408.28;5134615;27;20054;-64
2021/04/07 02:16:13;;;;;;;22.00;4.90;;;;;;;-1.89;100.00;101415.56;5134749;27;20031;-64
2021/04/07 02:18:39;;;;;;;20.75;4.70;;;;;;;-1.85;100.00;101414.97;5135374;27;20028;-64
2021/04/07 02:21:04;;;;;;;21.13;4.63;;;;;;;-1.84;100.00;101413.25;5135232;27;20054;-64
2021/04/07 02:23:30;;;;;;;20.52;3.95;;;;;;;-1.76;100.00;101414.66;5134726;27;20074;-64
2021/04/07 02:25:56;;;;;;;24.48;5.57;;;;;;;-1.74;100.00;101418.22;5134809;27;20433;-64
2021/04/07 02:28:23;;;;;;;21.70;4.70;;;;;;;-1.66;100.00;101413.50;5133530;27;20079;-64
2021/04/07 02:30:48;;;;;;;24.35;5.13;;;;;;;-1.65;100.00;101407.53;5135075;27;20053;-64
2021/04/07 02:33:14;;;;;;;21.58;4.35;;;;;;;-1.69;100.00;101405.53;5135328;27;20019;-63
2021/04/07 02:35:39;;;;;;;24.10;4.55;;;;;;;-1.71;100.00;101401.97;5135163;27;20061;-64
2021/04/07 02:38:07;;;;;;;26.77;4.97;;;;;;;-1.71;100.00;101396.78;5134543;27;20071;-64
2021/04/07 02:40:33;;;;;;;26.60;5.03;;;;;;;-1.67;100.00;101393.59;5134475;27;20019;-64
2021/04/07 02:42:58;;;;;;;26.20;4.78;;;;;;;-1.68;100.00;101391.78;5133741;27;20083;-64
2021/04/07 02:45:23;;;;;;;23.08;4.32;;;;;;;-1.69;100.00;101390.00;5134965;27;20114;-64
2021/04/07 02:47:49;;;;;;;22.45;4.05;;;;;;;-1.68;100.00;101389.19;5134374;27;20094;-64
2021/04/07 02:50:14;;;;;;;21.13;4.13;;;;;;;-1.69;100.00;101382.22;5134803;27;20380;-64
2021/04/07 02:52:39;;;;;;;25.33;4.43;;;;;;;-1.69;100.00;101382.22;5137103;27;20031;-64
2021/04/07 02:55:05;;;;;;;20.63;4.00;;;;;;;-1.69;100.00;101382.22;5134387;27;20023;-64
2021/04/07 02:57:30;;;;;;;22.73;4.35;;;;;;;-1.70;100.00;101380.41;5132897;27;20442;-65
2021/04/07 02:59:56;;;;;;;26.90;5.45;;;;;;;-1.71;100.00;101386.41;5134630;27;20020;-65
2021/04/07 03:02:21;;;;;;;22.02;4.68;;;;;;;-1.68;100.00;101387.50;5134644;27;20027;-65
2021/04/07 03:04:46;;;;;;;24.50;5.07;;;;;;;-1.68;100.00;101384.00;5134545;27;20374;-64
2021/04/07 03:07:11;;;;;;;22.33;4.90;;;;;;;-1.69;100.00;101380.53;5134348;27;20084;-64
2021/04/07 03:09:37;;;;;;;22.63;5.10;;;;;;;-1.69;100.00;101380.53;5132584;27;20077;-64
2021/04/07 03:12:02;;;;;;;24.63;5.50;;;;;;;-1.70;100.00;101383.91;5133925;27;20122;-64
2021/04/07 03:14:28;;;;;;;25.50;4.80;;;;;;;-1.74;100.00;101394.91;5134248;27;20037;-63
2021/04/07 03:16:53;;;;;;;24.23;4.57;;;;;;;-1.74;100.00;101391.41;5133829;27;20489;-64
2021/04/07 03:19:18;;;;;;;26.98;5.07;;;;;;;-1.77;100.00;101384.34;5134145;27;20123;-64
2021/04/07 03:21:44;;;;;;;25.67;4.38;;;;;;;-1.78;100.00;101380.84;5133823;27;20122;-65
2021/04/07 03:24:09;;;;;;;22.00;4.82;;;;;;;-1.78;100.00;101385.13;5133586;27;20015;-65
2021/04/07 03:26:34;;;;;;;27.02;4.88;;;;;;;-1.79;100.00;101371.28;5133543;27;20030;-65
2021/04/07 03:29:00;;;;;;;18.88;3.70;;;;;;;-1.69;100.00;101377.03;5133395;27;20489;-65
2021/04/07 03:31:25;;;;;;;20.85;4.47;;;;;;;-1.68;100.00;101365.88;5134192;27;20029;-65
2021/04/07 03:33:50;;;;;;;25.38;4.95;;;;;;;-1.71;100.00;101363.09;5133945;27;20042;-64
2021/04/07 03:36:16;;;;;;;26.85;5.57;;;;;;;-1.70;100.00;101367.44;5132223;27;20028;-65
2021/04/07 03:38:41;;;;;;;23.88;5.90;;;;;;;-1.70;100.00;101355.41;5133476;27;20030;-65
2021/04/07 03:41:06;;;;;;;26.05;6.18;;;;;;;-1.68;100.00;101360.69;5133921;27;20032;-65
2021/04/07 03:43:31;;;;;;;20.90;4.63;;;;;;;-1.69;100.00;101353.69;5133667;27;20113;-65
2021/04/07 03:45:58;;;;;;;23.92;5.45;;;;;;;-1.69;100.00;101364.06;5133399;27;20541;-65
2021/04/07 03:48:29;;;;;;;23.88;5.80;;;;;;;-1.63;100.00;101375.72;5131773;27;20440;-64
2021/04/07 03:50:56;;;;;;;26.50;6.07;;;;;;;-1.61;100.00;101379.31;5130180;27;20066;-65
2021/04/07 03:53:22;;;;;;;30.83;7.70;;;;;;;-1.56;100.00;101365.72;5133447;27;20106;-65
2021/04/07 03:55:50;;;;;;;28.05;6.22;;;;;;;-1.52;100.00;101378.09;5133553;27;20359;-65
2021/04/07 03:58:16;;;;;;;24.10;6.63;;;;;;;-1.49;100.00;101368.78;5132526;27;20031;-65
2021/04/07 04:00:41;;;;;;;23.77;5.50;;;;;;;-1.43;100.00;101369.19;5132278;27;20050;-65
2021/04/07 04:03:09;;;;;;;26.60;6.35;;;;;;;-1.43;100.00;101376.03;5133053;27;20027;-64
2021/04/07 04:05:36;;;;;;;26.15;6.05;;;;;;;-1.36;100.00;101366.94;5133339;27;20027;-65
2021/04/07 04:08:02;;;;;;;29.88;5.60;;;;;;;-1.37;100.00;101372.94;5132590;27;20030;-65
2021/04/07 04:10:27;;;;;;;23.63;5.18;;;;;;;-1.36;100.00;101369.56;5128748;27;20080;-65
2021/04/07 04:12:53;;;;;;;28.65;5.55;;;;;;;-1.41;100.00;101370.16;5131608;27;20023;-65
2021/04/07 04:15:18;;;;;;;28.38;6.10;;;;;;;-1.41;100.00;101349.41;5132348;27;20102;-64
2021/04/07 04:17:44;;;;;;;30.00;6.45;;;;;;;-1.39;100.00;101349.50;5132829;27;20580;-64
2021/04/07 04:20:11;;;;;;;24.63;5.75;;;;;;;-1.39;100.00;101353.81;5131256;27;20496;-65
2021/04/07 04:22:36;;;;;;;30.05;6.82;;;;;;;-1.37;100.00;101358.25;5132838;27;20118;-65
2021/04/07 04:25:04;;;;;;;24.60;5.60;;;;;;;-1.36;100.00;101360.06;5133424;27;20122;-65
2021/04/07 04:27:29;;;;;;;27.42;6.32;;;;;;;-1.36;100.00;101369.56;5131363;27;20047;-64
2021/04/07 04:29:54;;;;;;;25.13;6.15;;;;;;;-1.35;100.00;101364.44;5131797;27;20050;-64
2021/04/07 04:32:20;;;;;;;29.92;6.60;;;;;;;-1.36;100.00;101365.25;5132797;27;20027;-64
2021/04/07 04:34:45;;;;;;;26.75;5.65;;;;;;;-1.33;100.00;101369.72;5132671;27;20023;-64
2021/04/07 04:37:11;;;;;;;25.85;6.50;;;;;;;-1.37;100.00;101376.41;5132513;27;20019;-64
2021/04/07 04:39:36;;;;;;;34.63;7.07;;;;;;;-1.37;100.00;101379.00;5132731;27;20023;-65
2021/04/07 04:42:03;;;;;;;32.53;6.72;;;;;;;-1.37;100.00;101376.41;5131802;27;20278;-63
2021/04/07 04:44:28;;;;;;;24.35;5.80;;;;;;;-1.33;100.00;101364.53;5132013;27;20019;-64
2021/04/07 04:46:54;;;;;;;22.65;5.20;;;;;;;-1.32;100.00;101372.41;5132123;27;20150;-65
2021/04/07 04:49:19;;;;;;;39.92;7.72;;;;;;;-1.39;100.00;101369.38;5132632;27;20055;-64
2021/04/07 04:51:45;;;;;;;27.13;5.43;;;;;;;-1.46;100.00;101362.91;5132519;27;20040;-64
2021/04/07 04:54:10;;;;;;;28.85;6.72;;;;;;;-1.40;100.00;101358.06;5132740;27;20031;-65
2021/04/07 04:56:38;;;;;;;31.63;8.68;;;;;;;-1.38;100.00;101371.13;5131460;27;20388;-65
2021/04/07 04:59:04;;;;;;;29.52;8.40;;;;;;;-1.35;100.00;101368.75;5131865;27;20027;-65
2021/04/07 05:01:30;;;;;;;32.45;8.30;;;;;;;-1.36;100.00;101366.94;5132156;27;20027;-65
2021/04/07 05:03:55;;;;;;;30.30;8.65;;;;;;;-1.40;100.00;101365.84;5130768;27;20497;-64
2021/04/07 05:06:20;;;;;;;35.67;9.90;;;;;;;-1.45;100.00;101355.19;5132540;27;20050;-65
2021/04/07 05:08:49;;;;;;;38.38;10.38;;;;;;;-1.43;100.00;101343.25;5130888;27;20028;-65
2021/04/07 05:11:14;;;;;;;41.10;10.85;;;;;;;-1.45;100.00;101343.94;5130265;28;20127;-65
2021/04/07 05:13:41;;;;;;;34.72;9.02;;;;;;;-1.47;100.00;101343.84;5131816;27;20572;-65
2021/04/07 05:16:06;;;;;;;39.25;11.73;;;;;;;-1.43;100.00;101364.00;5132296;27;20023;-65
2021/04/07 05:18:31;;;;;;;37.17;12.30;;;;;;;-1.42;100.00;101354.50;5132224;27;20079;-65
2021/04/07 05:20:57;;;;;;;35.00;13.52;;;;;;;-1.39;100.00;101364.19;5132099;27;20478;-65
2021/04/07 05:23:22;;;;;;;29.00;9.15;;;;;;;-1.34;100.00;101352.38;5132266;27;20033;-64
2021/04/07 05:25:48;;;;;;;30.42;9.77;;;;;;;-1.39;100.00;101346.91;5131306;27;20043;-64
2021/04/07 05:28:13;;;;;;;30.52;10.63;;;;;;;-1.31;100.00;101349.94;5131405;27;20043;-64
2021/04/07 05:33:23;;;;;;;27.85;9.50;;;;;;;-1.32;100.00;101345.59;5129949;28;20043;-64
2021/04/07 05:35:49;;;;;;;27.17;9.30;;;;;;;-1.32;100.00;101325.72;5132581;27;20020;-65
2021/04/07 05:38:17;;;;;;;26.77;8.38;;;;;;;-1.29;100.00;101335.41;5130985;27;20489;-66
2021/04/07 05:40:42;;;;;;;25.60;8.77;;;;;;;-1.27;100.00;101324.31;5131339;28;20488;-66
2021/04/07 05:43:08;;;;;;;28.55;9.88;;;;;;;-1.31;100.00;101313.63;5132050;27;20023;-68
2021/04/07 05:45:36;;;;;;;30.30;9.18;;;;;;;-1.28;100.00;101327.69;5131233;27;20015;-66
2021/04/07 05:48:02;;;;;;;28.77;9.80;;;;;;;-1.27;100.00;101326.00;5131090;28;20586;-67
2021/04/07 05:50:27;;;;;;;28.23;9.25;;;;;;;-1.27;100.00;101328.59;5131184;27;20106;-66
2021/04/07 05:52:52;;;;;;;29.98;9.70;;;;;;;-1.31;100.00;101332.72;5132061;28;20148;-69
2021/04/07 05:55:19;;;;;;;26.30;7.45;;;;;;;-1.37;100.00;101336.63;5132008;27;20072;-69
2021/04/07 05:57:55;;;;;;;27.98;9.27;;;;;;;-1.36;100.00;101328.94;5131371;28;20038;-66
2021/04/07 06:00:21;;;;;;;30.23;9.50;;;;;;;-1.42;100.00;101329.44;5134857;27;20025;-68
2021/04/07 06:02:47;;;;;;;32.17;11.73;;;;;;;-1.47;100.00;101330.88;5134741;27;20319;-68
2021/04/07 06:05:13;;;;;;;32.85;10.02;;;;;;;-1.42;100.00;101319.06;5135051;27;20088;-68
2021/04/07 06:07:38;;;;;;;31.00;9.50;;;;;;;-1.32;100.00;101304.09;5135224;27;20020;-67
2021/04/07 06:10:04;;;;;;;28.00;8.25;;;;;;;-1.46;100.00;101326.59;5135652;27;20019;-67
2021/04/07 06:12:29;;;;;;;29.77;7.70;;;;;;;-1.47;100.00;101323.09;5135628;27;20059;-67
2021/04/07 06:14:54;;;;;;;27.23;8.35;;;;;;;-1.50;100.00;101335.88;5135263;27;20073;-66
2021/04/07 06:17:20;;;;;;;30.20;9.82;;;;;;;-1.48;100.00;101329.09;5133750;27;20027;-67
2021/04/07 06:19:45;;;;;;;33.70;9.93;;;;;;;-1.48;100.00;101325.59;5135124;27;20027;-65
2021/04/07 06:22:10;;;;;;;36.08;9.45;;;;;;;-1.54;100.00;101328.72;5133447;27;20050;-70
2021/04/07 06:24:36;;;;;;;29.90;9.30;;;;;;;-1.52;100.00;101341.78;5135047;27;20109;-71
2021/04/07 06:27:01;;;;;;;29.52;7.65;;;;;;;-1.51;100.00;101336.69;5134888;27;20053;-71
2021/04/07 06:29:26;;;;;;;28.08;9.13;;;;;;;-1.48;100.00;101349.84;5135020;27;20477;-71
2021/04/07 06:31:52;;;;;;;26.70;6.57;;;;;;;-1.46;100.00;101342.16;5133853;27;20059;-71
2021/04/07 06:34:17;;;;;;;30.77;9.57;;;;;;;-1.48;100.00;101356.72;5133734;27;20019;-69
2021/04/07 06:36:42;;;;;;;33.03;10.80;;;;;;;-1.51;100.00;101349.66;5132733;27;20015;-70
2021/04/07 06:39:07;;;;;;;31.05;9.80;;;;;;;-1.50;100.00;101342.75;5135332;27;20380;-68
2021/04/07 06:41:34;;;;;;;32.22;9.27;;;;;;;-1.49;100.00;101337.66;5136228;27;20468;-70
2021/04/07 06:44:01;;;;;;;30.42;9.98;;;;;;;-1.50;100.00;101356.63;5135022;27;20117;-72
2021/04/07 06:46:27;;;;;;;29.55;9.80;;;;;;;-1.50;100.00;101340.16;5131846;27;20103;-67
2021/04/07 06:48:53;;;;;;;33.25;11.05;;;;;;;-1.50;100.00;101343.66;5134391;27;20052;-69
2021/04/07 06:51:21;;;;;;;32.72;12.55;;;;;;;-1.50;100.00;101333.31;5134397;27;20103;-70
2021/04/07 06:53:50;;;;;;;31.70;9.98;;;;;;;-1.54;100.00;101359.84;5134909;27;20072;-71
2021/04/07 06:56:17;;;;;;;29.60;11.05;;;;;;;-1.43;100.00;101374.38;5133196;27;20094;-70
2021/04/07 06:58:44;;;;;;;30.00;9.30;;;;;;;-1.41;100.00;101371.88;5132278;27;20080;-69
2021/04/07 07:01:10;;;;;;;27.38;8.55;;;;;;;-1.35;100.00;101381.72;5133870;27;20031;-71
2021/04/07 07:03:35;;;;;;;29.30;7.85;;;;;;;-1.33;100.00;101370.63;5134523;27;20488;-69
2021/04/07 07:06:00;;;;;;;28.38;6.18;;;;;;;-1.21;100.00;101365.28;5134413;27;20381;-69
2021/04/07 07:08:30;;;;;;;27.58;9.90;;;;;;;-1.30;100.00;101409.72;5134290;27;20064;-70
2021/04/07 07:10:56;;;;;;;25.30;6.88;;;;;;;-1.19;100.00;101379.25;5132222;27;20098;-68
2021/04/07 07:13:23;;;;;;;24.88;7.05;;;;;;;-1.20;100.00;101387.81;5134005;27;20563;-70
2021/04/07 07:15:49;;;;;;;21.67;5.20;;;;;;;-1.18;100.00;101386.25;5133778;27;20028;-67
2021/04/07 07:18:25;;;;;;;31.98;12.65;;;;;;;-1.23;100.00;101398.03;5134188;27;20019;-68
2021/04/07 07:20:51;;;;;;;31.77;8.98;;;;;;;-1.21;100.00;101398.13;5134202;27;20027;-65
2021/04/07 07:23:27;;;;;;;28.98;9.27;;;;;;;-1.23;100.00;101387.66;5134306;27;20385;-69
2021/04/07 07:26:05;;;;;;;32.80;10.27;;;;;;;-1.24;100.00;101393.63;5132260;27;20042;-67
2021/04/07 07:28:42;;;;;;;29.85;8.00;;;;;;;-1.15;100.00;101390.69;5132050;27;20459;-68
2021/04/07 07:31:24;;;;;;;31.17;7.75;;;;;;;-1.02;100.00;101397.53;5131551;27;20027;-65
2021/04/07 07:33:50;;;;;;;32.25;10.70;;;;;;;-1.11;100.00;101383.19;5133621;27;20032;-69
2021/04/07 07:36:16;;;;;;;37.45;14.02;;;;;;;-1.03;100.00;101412.22;5133360;27;20074;-69
2021/04/07 07:38:53;;;;;;;30.35;9.43;;;;;;;-0.94;100.00;101415.34;5133963;27;20031;-69
2021/04/07 07:41:30;;;;;;;34.05;10.70;;;;;;;-1.01;100.00;101410.59;5132254;27;20351;-68
2021/04/07 07:43:57;;;;;;;38.17;10.30;;;;;;;-1.01;100.00;101418.38;5134254;27;20033;-67
2021/04/07 07:46:28;;;;;;;44.53;15.32;;;;;;;-0.93;100.00;101414.56;5133301;27;20031;-65
2021/04/07 07:48:55;;;;;;;25.85;7.18;;;;;;;-0.81;100.00;101418.69;5133709;27;20055;-65
2021/04/07 07:51:25;;;;;;;38.28;11.88;;;;;;;-0.84;100.00;101419.41;5133823;27;20479;-66
2021/04/07 07:53:52;;;;;;;39.03;10.75;;;;;;;-0.84;100.00;101418.53;5132656;27;20019;-65
2021/04/07 07:56:20;;;;;;;32.22;9.50;;;;;;;-0.83;100.00;101426.41;5132752;27;20440;-64
2021/04/07 07:58:52;;;;;;;43.65;12.43;;;;;;;-0.61;100.00;101417.25;5132389;27;20061;-65
2021/04/07 08:01:19;;;;;;;40.80;11.35;;;;;;;-0.64;100.00;101432.66;5133350;27;20027;-65
2021/04/07 08:03:47;;;;;;;39.78;11.45;;;;;;;-0.58;100.00;101439.13;5131049;27;20039;-64
2021/04/07 08:06:15;;;;;;;50.42;13.43;;;;;;;-0.53;100.00;101431.59;5132612;27;20122;-62
2021/04/07 08:08:40;;;;;;;38.92;10.20;;;;;;;-0.46;100.00;101440.66;5133035;27;20355;-64
2021/04/07 08:11:07;;;;;;;50.40;15.32;;;;;;;-0.45;100.00;101500.50;5132912;27;20038;-63
2021/04/07 08:13:38;;;;;;;45.55;14.18;;;;;;;-0.46;100.00;101459.72;5132380;27;20068;-61
2021/04/07 08:16:06;;;;;;;28.52;7.53;;;;;;;-0.36;100.00;101469.84;5133239;27;20027;-64
2021/04/07 08:18:31;;;;;;;32.85;8.00;;;;;;;-0.20;100.00;101482.03;5133023;27;20035;-64
2021/04/07 08:20:57;;;;;;;32.83;8.55;;;;;;;-0.23;100.00;101478.38;5130954;27;20041;-64
2021/04/07 08:23:24;;;;;;;34.95;7.85;;;;;;;-0.09;100.00;101487.84;5131594;27;20031;-64
2021/04/07 08:25:54;;;;;;;41.75;9.48;;;;;;;0.05;100.00;101500.75;5133217;27;20024;-64
2021/04/07 08:28:20;;;;;;;42.20;8.27;;;;;;;0.17;100.00;101491.97;5131214;27;20110;-64
2021/04/07 08:30:46;;;;;;;61.28;16.05;;;;;;;0.22;100.00;101500.03;5131642;27;20038;-64
2021/04/07 08:33:12;;;;;;;59.92;15.20;;;;;;;0.19;100.00;101506.75;5132384;27;20023;-64
2021/04/07 08:35:38;;;;;;;70.13;15.50;;;;;;;0.18;100.00;101503.25;5132861;27;20023;-64
2021/04/07 08:38:06;;;;;;;57.15;12.95;;;;;;;0.16;100.00;101510.97;5131744;27;20029;-64
2021/04/07 08:40:38;;;;;;;63.40;14.07;;;;;;;0.22;100.00;101509.50;5132909;27;20019;-64
2021/04/07 08:43:05;;;;;;;56.15;13.88;;;;;;;0.36;100.00;101505.97;5130204;27;20027;-63
2021/04/07 08:45:45;;;;;;;63.58;13.93;;;;;;;0.64;100.00;101518.84;5132870;27;20084;-64
2021/04/07 08:48:21;;;;;;;53.80;9.75;;;;;;;0.89;100.00;101515.00;5130996;27;20027;-65
2021/04/07 08:50:48;;;;;;;39.85;7.03;;;;;;;1.16;100.00;101517.28;5131084;27;20055;-65
2021/04/07 08:53:16;;;;;;;57.15;8.88;;;;;;;1.36;100.00;101511.41;5131478;27;20049;-66
2021/04/07 08:55:54;;;;;;;52.08;7.38;;;;;;;1.55;100.00;101517.56;5131268;27;20026;-67
2021/04/07 08:58:25;;;;;;;46.35;6.22;;;;;;;1.79;100.00;101511.81;5132391;27;20099;-68
2021/04/07 09:00:56;;;;;;;27.30;4.90;;;;;;;1.97;100.00;101519.69;5131906;27;20023;-68
2021/04/07 09:03:27;;;;;;;41.78;6.78;;;;;;;2.18;100.00;101517.25;5131905;27;20503;-67
2021/04/07 09:05:54;;;;;;;44.42;5.90;;;;;;;2.37;100.00;101522.53;5131739;27;20031;-67
2021/04/07 09:08:23;;;;;;;45.15;7.03;;;;;;;2.72;100.00;101532.88;5132432;27;20027;-67
2021/04/07 09:10:52;;;;;;;27.60;4.43;;;;;;;2.79;100.00;101530.63;5132480;27;20031;-67
2021/04/07 09:13:22;;;;;;;38.03;5.03;;;;;;;2.89;100.00;101538.91;5132090;27;20042;-67
2021/04/07 09:15:55;;;;;;;51.10;7.75;;;;;;;3.03;100.00;101536.91;5132117;28;20050;-67
2021/04/07 09:18:32;;;;;;;33.17;4.70;;;;;;;2.88;100.00;101558.00;5131268;27;20035;-67
2021/04/07 09:20:59;;;;;;;38.88;5.28;;;;;;;2.91;100.00;101546.00;5131830;27;20031;-67
2021/04/07 09:23:28;;;;;;;40.53;5.72;;;;;;;2.95;100.00;101563.56;5131807;27;20039;-66
2021/04/07 09:25:58;;;;;;;47.63;6.50;;;;;;;3.02;100.00;101569.09;5132639;27;20057;-65
2021/04/07 09:28:40;;;;;;;42.13;5.28;;;;;;;2.85;100.00;101579.63;5130928;28;20039;-66
2021/04/07 09:31:14;;;;;;;39.47;5.53;;;;;;;2.71;100.00;101571.16;5128186;28;20023;-66
2021/04/07 09:33:51;;;;;;;37.05;4.93;;;;;;;2.63;100.00;101580.31;5131949;27;20059;-66
2021/04/07 09:36:24;;;;;;;33.78;5.10;;;;;;;2.75;100.00;101570.50;5134120;27;20384;-66
2021/04/07 09:38:52;;;;;;;39.13;5.28;;;;;;;2.95;100.00;101575.75;5136478;27;20055;-64
2021/04/07 09:41:28;;;;;;;36.80;5.13;;;;;;;3.12;100.00;101589.59;5136261;27;20050;-65
2021/04/07 09:43:55;;;;;;;26.08;3.88;;;;;;;3.37;100.00;101583.78;5135465;27;20495;-65
2021/04/07 09:46:21;;;;;;;25.65;4.05;;;;;;;3.78;100.00;101586.47;5134585;27;20106;-64
2021/04/07 09:49:06;;;;;;;25.55;4.30;;;;;;;4.06;100.00;101578.06;5135955;27;20106;-64
2021/04/07 09:51:33;;;;;;;27.58;4.55;;;;;;;4.95;100.00;101586.06;5134980;27;20030;-64
2021/04/07 09:54:20;;;;;;;26.77;4.43;;;;;;;5.79;87.74;101576.03;5135878;27;20059;-64
2021/04/07 09:56:45;;;;;;;31.38;4.20;;;;;;;6.60;85.13;101584.06;5135059;27;20019;-65
2021/04/07 09:59:11;;;;;;;28.20;4.03;;;;;;;6.70;83.87;101574.75;5135303;27;20027;-65
2021/04/07 10:01:40;;;;;;;26.42;4.32;;;;;;;6.13;83.32;101591.28;5133865;27;20366;-66
2021/04/07 10:04:06;;;;;;;30.40;4.43;;;;;;;5.98;83.55;101588.09;5133571;27;20023;-65
2021/04/07 10:06:32;;;;;;;30.20;5.53;;;;;;;5.43;80.22;101615.81;5135314;27;20080;-66
2021/04/07 10:09:00;;;;;;;27.20;3.92;;;;;;;5.06;81.84;101600.47;5136068;27;20027;-66
2021/04/07 10:11:27;;;;;;;29.48;4.45;;;;;;;5.23;81.82;101603.75;5134144;27;20122;-65
2021/04/07 10:13:54;;;;;;;25.63;4.22;;;;;;;5.66;82.21;101612.31;5134806;27;20061;-65
2021/04/07 10:16:20;;;;;;;24.25;3.95;;;;;;;5.76;77.59;101610.94;5135264;27;20050;-65
2021/04/07 10:18:45;;;;;;;31.42;4.90;;;;;;;6.02;72.53;101605.75;5135815;27;20051;-64
2021/04/07 10:21:16;;;;;;;25.88;4.10;;;;;;;6.05;77.06;101613.75;5135340;27;20353;-65
2021/04/07 10:23:43;;;;;;;27.52;4.22;;;;;;;6.43;78.27;101611.53;5135718;27;20035;-65
2021/04/07 10:26:08;;;;;;;25.23;3.45;;;;;;;6.91;71.61;101621.84;5134924;27;20016;-64
2021/04/07 10:28:35;;;;;;;24.77;3.47;;;;;;;6.78;71.13;101625.81;5134954;27;20468;-64
2021/04/07 10:31:00;;;;;;;28.17;4.20;;;;;;;7.05;73.77;101611.78;5135537;27;20050;-65
2021/04/07 10:33:29;;;;;;;24.98;4.25;;;;;;;7.81;71.35;101606.09;5135356;27;20027;-63
2021/04/07 10:35:59;;;;;;;27.60;4.32;;;;;;;8.50;67.12;101622.84;5135092;27;20035;-62
2021/04/07 10:38:32;;;;;;;27.30;3.95;;;;;;;9.08;65.46;101613.69;5134343;27;20031;-66
2021/04/07 10:41:02;;;;;;;24.27;3.83;;;;;;;10.13;62.70;101622.88;5135429;27;20042;-68
2021/04/07 10:43:39;;;;;;;22.55;3.95;;;;;;;8.81;59.75;101636.78;5134746;27;20359;-65
2021/04/07 10:46:07;;;;;;;23.50;3.70;;;;;;;8.43;61.60;101611.25;5134294;27;20028;-65
2021/04/07 10:48:33;;;;;;;22.13;3.25;;;;;;;7.35;61.36;101657.38;5134611;27;20043;-66
2021/04/07 10:50:59;;;;;;;19.60;2.75;;;;;;;6.81;62.78;101672.34;5134361;27;20019;-66
2021/04/07 10:53:37;;;;;;;17.80;2.60;;;;;;;6.06;65.66;101668.91;5131554;27;20042;-67
2021/04/07 10:56:13;;;;;;;17.33;2.60;;;;;;;5.83;66.71;101680.28;5131349;27;20023;-65
2021/04/07 10:58:38;;;;;;;14.63;2.80;;;;;;;6.09;66.46;101662.88;5130032;27;20079;-67
2021/04/07 11:01:03;;;;;;;23.88;3.35;;;;;;;5.98;67.64;101679.97;5130575;27;20019;-68
2021/04/07 11:03:31;;;;;;;19.52;2.88;;;;;;;6.48;65.55;101680.88;5132424;27;20027;-65
2021/04/07 11:05:56;;;;;;;22.63;3.33;;;;;;;6.91;64.75;101674.41;5133885;27;20075;-66
2021/04/07 11:08:35;;;;;;;24.17;3.97;;;;;;;7.22;60.54;101701.69;5134456;27;20114;-66
2021/04/07 11:11:01;;;;;;;21.35;4.07;;;;;;;6.55;63.60;101682.88;5133561;27;20023;-66
2021/04/07 11:13:27;;;;;;;27.52;5.80;;;;;;;6.02;66.84;101708.13;5135679;27;20073;-64
2021/04/07 11:15:53;;;;;;;30.63;6.63;;;;;;;4.65;74.92;101707.09;5132638;27;20465;-67